sensor_id;sensor_type;location;lat;lon;timestamp;temperature;humidity
65989;HTU21D;53592;51.402;6.054;2022-10-18T00:00:41;16.74;84.26
65989;HTU21D;53592;51.402;6.054;2022-10-18T00:03:07;16.77;84.00
65989;HTU21D;53592;51.402;6.054;2022-10-18T00:05:33;16.77;83.85
65989;HTU21D;53592;51.402;6.054;2022-10-18T00:07:58;16.74;83.78
65989;HTU21D;53592;51.402;6.054;2022-10-18T00:10:25;16.69;83.93
65989;HTU21D;53592;51.402;6.054;2022-10-18T00:12:50;16.65;84.16
65989;HTU21D;53592;51.402;6.054;2022-10-18T00:15:16;16.63;84.23
65989;HTU21D;53592;51.402;6.054;2022-10-18T00:17:42;16.60;84.47
65989;HTU21D;53592;51.402;6.054;2022-10-18T00:20:08;16.57;84.59
65989;HTU21D;53592;51.402;6.054;2022-10-18T00:22:37;16.60;84.54
65989;HTU21D;53592;51.402;6.054;2022-10-18T00:25:03;16.60;84.68
65989;HTU21D;53592;51.402;6.054;2022-10-18T00:27:30;16.62;84.65
65989;HTU21D;53592;51.402;6.054;2022-10-18T00:29:55;16.63;84.64
65989;HTU21D;53592;51.402;6.054;2022-10-18T00:32:21;16.62;84.61
65989;HTU21D;53592;51.402;6.054;2022-10-18T00:34:46;16.64;84.64
65989;HTU21D;53592;51.402;6.054;2022-10-18T00:37:12;16.67;84.48
65989;HTU21D;53592;51.402;6.054;2022-10-18T00:39:37;16.71;84.42
65989;HTU21D;53592;51.402;6.054;2022-10-18T00:42:03;16.67;84.43
65989;HTU21D;53592;51.402;6.054;2022-10-18T00:47:02;16.70;84.48
65989;HTU21D;53592;51.402;6.054;2022-10-18T00:49:36;16.72;84.46
65989;HTU21D;53592;51.402;6.054;2022-10-18T00:52:08;16.78;84.20
65989;HTU21D;53592;51.402;6.054;2022-10-18T00:54:40;16.79;84.21
65989;HTU21D;53592;51.402;6.054;2022-10-18T00:57:07;16.80;84.07
65989;HTU21D;53592;51.402;6.054;2022-10-18T00:59:34;16.79;84.15
65989;HTU21D;53592;51.402;6.054;2022-10-18T01:02:01;16.77;84.17
65989;HTU21D;53592;51.402;6.054;2022-10-18T01:04:27;16.73;84.39
65989;HTU21D;53592;51.402;6.054;2022-10-18T01:15:30;16.79;84.08
65989;HTU21D;53592;51.402;6.054;2022-10-18T01:34:26;16.81;84.40
65989;HTU21D;53592;51.402;6.054;2022-10-18T01:36:55;16.82;84.32
65989;HTU21D;53592;51.402;6.054;2022-10-18T01:39:29;16.82;84.15
65989;HTU21D;53592;51.402;6.054;2022-10-18T01:42:00;16.80;84.42
65989;HTU21D;53592;51.402;6.054;2022-10-18T01:44:32;16.82;84.43
65989;HTU21D;53592;51.402;6.054;2022-10-18T01:47:00;16.88;84.20
65989;HTU21D;53592;51.402;6.054;2022-10-18T01:49:26;16.88;84.10
65989;HTU21D;53592;51.402;6.054;2022-10-18T01:51:52;16.91;84.00
65989;HTU21D;53592;51.402;6.054;2022-10-18T01:54:28;16.92;83.92
65989;HTU21D;53592;51.402;6.054;2022-10-18T02:10:30;16.93;83.98
65989;HTU21D;53592;51.402;6.054;2022-10-18T02:12:58;16.92;83.97
65989;HTU21D;53592;51.402;6.054;2022-10-18T02:15:38;16.93;84.07
65989;HTU21D;53592;51.402;6.054;2022-10-18T02:18:10;16.95;83.97
65989;HTU21D;53592;51.402;6.054;2022-10-18T02:20:37;16.92;84.19
65989;HTU21D;53592;51.402;6.054;2022-10-18T02:23:07;16.93;84.35
65989;HTU21D;53592;51.402;6.054;2022-10-18T02:25:34;16.92;84.50
65989;HTU21D;53592;51.402;6.054;2022-10-18T02:28:01;16.92;84.46
65989;HTU21D;53592;51.402;6.054;2022-10-18T02:30:42;16.94;84.38
65989;HTU21D;53592;51.402;6.054;2022-10-18T02:33:34;16.93;84.54
65989;HTU21D;53592;51.402;6.054;2022-10-18T02:36:17;16.89;84.77
65989;HTU21D;53592;51.402;6.054;2022-10-18T02:38:45;16.86;84.90
65989;HTU21D;53592;51.402;6.054;2022-10-18T02:41:11;16.86;85.03
65989;HTU21D;53592;51.402;6.054;2022-10-18T02:43:37;16.86;85.11
65989;HTU21D;53592;51.402;6.054;2022-10-18T02:46:02;16.85;85.13
65989;HTU21D;53592;51.402;6.054;2022-10-18T02:48:29;16.88;85.01
65989;HTU21D;53592;51.402;6.054;2022-10-18T02:50:54;16.89;84.93
65989;HTU21D;53592;51.402;6.054;2022-10-18T02:53:20;16.90;84.90
65989;HTU21D;53592;51.402;6.054;2022-10-18T02:55:45;16.93;84.66
65989;HTU21D;53592;51.402;6.054;2022-10-18T02:58:11;16.93;84.57
65989;HTU21D;53592;51.402;6.054;2022-10-18T03:00:36;16.91;84.64
65989;HTU21D;53592;51.402;6.054;2022-10-18T03:03:02;16.89;84.73
65989;HTU21D;53592;51.402;6.054;2022-10-18T03:05:27;16.90;84.71
65989;HTU21D;53592;51.402;6.054;2022-10-18T03:07:55;16.85;84.74
65989;HTU21D;53592;51.402;6.054;2022-10-18T03:10:22;16.84;84.87
65989;HTU21D;53592;51.402;6.054;2022-10-18T03:12:47;16.85;84.93
65989;HTU21D;53592;51.402;6.054;2022-10-18T03:15:13;16.87;84.70
65989;HTU21D;53592;51.402;6.054;2022-10-18T03:17:38;16.89;84.45
65989;HTU21D;53592;51.402;6.054;2022-10-18T03:20:04;16.86;84.50
65989;HTU21D;53592;51.402;6.054;2022-10-18T03:22:29;16.86;84.60
65989;HTU21D;53592;51.402;6.054;2022-10-18T03:24:55;16.84;84.74
65989;HTU21D;53592;51.402;6.054;2022-10-18T03:27:20;16.84;84.84
65989;HTU21D;53592;51.402;6.054;2022-10-18T03:29:46;16.82;84.85
65989;HTU21D;53592;51.402;6.054;2022-10-18T03:32:11;16.82;85.00
65989;HTU21D;53592;51.402;6.054;2022-10-18T03:34:37;16.81;85.19
65989;HTU21D;53592;51.402;6.054;2022-10-18T03:37:02;16.81;85.29
65989;HTU21D;53592;51.402;6.054;2022-10-18T03:39:28;16.80;85.29
65989;HTU21D;53592;51.402;6.054;2022-10-18T03:41:53;16.81;85.26
65989;HTU21D;53592;51.402;6.054;2022-10-18T03:44:18;16.81;85.27
65989;HTU21D;53592;51.402;6.054;2022-10-18T03:46:44;16.81;85.26
65989;HTU21D;53592;51.402;6.054;2022-10-18T03:49:09;16.81;85.32
65989;HTU21D;53592;51.402;6.054;2022-10-18T03:51:35;16.82;85.29
65989;HTU21D;53592;51.402;6.054;2022-10-18T03:54:00;16.82;85.24
65989;HTU21D;53592;51.402;6.054;2022-10-18T03:56:26;16.80;85.26
65989;HTU21D;53592;51.402;6.054;2022-10-18T03:58:51;16.82;85.13
65989;HTU21D;53592;51.402;6.054;2022-10-18T04:01:17;16.81;85.21
65989;HTU21D;53592;51.402;6.054;2022-10-18T04:03:42;16.80;85.22
65989;HTU21D;53592;51.402;6.054;2022-10-18T04:06:08;16.79;85.21
65989;HTU21D;53592;51.402;6.054;2022-10-18T04:08:34;16.78;85.20
65989;HTU21D;53592;51.402;6.054;2022-10-18T04:11:04;16.77;85.24
65989;HTU21D;53592;51.402;6.054;2022-10-18T04:13:30;16.74;85.30
65989;HTU21D;53592;51.402;6.054;2022-10-18T04:15:55;16.72;85.37
65989;HTU21D;53592;51.402;6.054;2022-10-18T04:18:20;16.73;85.42
65989;HTU21D;53592;51.402;6.054;2022-10-18T04:20:46;16.69;85.58
65989;HTU21D;53592;51.402;6.054;2022-10-18T04:23:11;16.69;85.70
65989;HTU21D;53592;51.402;6.054;2022-10-18T04:25:37;16.67;85.63
65989;HTU21D;53592;51.402;6.054;2022-10-18T04:28:02;16.69;85.65
65989;HTU21D;53592;51.402;6.054;2022-10-18T04:30:28;16.71;85.55
65989;HTU21D;53592;51.402;6.054;2022-10-18T04:32:54;16.76;85.32
65989;HTU21D;53592;51.402;6.054;2022-10-18T04:35:19;16.78;85.11
65989;HTU21D;53592;51.402;6.054;2022-10-18T04:37:49;16.81;84.86
65989;HTU21D;53592;51.402;6.054;2022-10-18T04:40:14;16.79;84.95
65989;HTU21D;53592;51.402;6.054;2022-10-18T04:42:40;16.84;84.80
65989;HTU21D;53592;51.402;6.054;2022-10-18T04:45:06;16.79;84.89
65989;HTU21D;53592;51.402;6.054;2022-10-18T04:47:31;16.75;85.11
65989;HTU21D;53592;51.402;6.054;2022-10-18T04:49:57;16.72;85.24
65989;HTU21D;53592;51.402;6.054;2022-10-18T04:52:22;16.73;85.43
65989;HTU21D;53592;51.402;6.054;2022-10-18T04:54:48;16.69;85.56
65989;HTU21D;53592;51.402;6.054;2022-10-18T04:57:13;16.64;85.68
65989;HTU21D;53592;51.402;6.054;2022-10-18T04:59:39;16.62;85.93
65989;HTU21D;53592;51.402;6.054;2022-10-18T05:02:04;16.67;85.71
65989;HTU21D;53592;51.402;6.054;2022-10-18T05:04:30;16.74;85.38
65989;HTU21D;53592;51.402;6.054;2022-10-18T05:06:55;16.77;85.13
65989;HTU21D;53592;51.402;6.054;2022-10-18T05:09:21;16.78;84.89
65989;HTU21D;53592;51.402;6.054;2022-10-18T05:11:49;16.82;84.77
65989;HTU21D;53592;51.402;6.054;2022-10-18T05:14:15;16.85;84.42
65989;HTU21D;53592;51.402;6.054;2022-10-18T05:16:40;16.84;84.07
65989;HTU21D;53592;51.402;6.054;2022-10-18T05:19:06;16.79;84.05
65989;HTU21D;53592;51.402;6.054;2022-10-18T05:21:32;16.73;84.32
65989;HTU21D;53592;51.402;6.054;2022-10-18T05:23:58;16.72;84.36
65989;HTU21D;53592;51.402;6.054;2022-10-18T05:26:23;16.72;84.10
65989;HTU21D;53592;51.402;6.054;2022-10-18T05:28:49;16.71;84.00
65989;HTU21D;53592;51.402;6.054;2022-10-18T05:31:15;16.69;83.97
65989;HTU21D;53592;51.402;6.054;2022-10-18T05:33:40;16.64;84.05
65989;HTU21D;53592;51.402;6.054;2022-10-18T05:36:07;16.62;84.23
65989;HTU21D;53592;51.402;6.054;2022-10-18T05:38:33;16.63;84.02
65989;HTU21D;53592;51.402;6.054;2022-10-18T05:40:58;16.61;83.96
65989;HTU21D;53592;51.402;6.054;2022-10-18T05:43:27;16.57;84.16
65989;HTU21D;53592;51.402;6.054;2022-10-18T05:45:53;16.54;84.28
65989;HTU21D;53592;51.402;6.054;2022-10-18T05:48:18;16.51;84.26
65989;HTU21D;53592;51.402;6.054;2022-10-18T05:50:44;16.52;84.13
65989;HTU21D;53592;51.402;6.054;2022-10-18T05:53:10;16.51;84.09
65989;HTU21D;53592;51.402;6.054;2022-10-18T05:55:36;16.50;84.09
65989;HTU21D;53592;51.402;6.054;2022-10-18T05:58:02;16.46;84.31
65989;HTU21D;53592;51.402;6.054;2022-10-18T06:00:28;16.40;84.49
65989;HTU21D;53592;51.402;6.054;2022-10-18T06:02:54;16.36;84.72
65989;HTU21D;53592;51.402;6.054;2022-10-18T06:05:20;16.33;84.97
65989;HTU21D;53592;51.402;6.054;2022-10-18T06:07:46;16.32;85.11
65989;HTU21D;53592;51.402;6.054;2022-10-18T06:10:11;16.33;85.32
65989;HTU21D;53592;51.402;6.054;2022-10-18T06:12:37;16.34;85.59
65989;HTU21D;53592;51.402;6.054;2022-10-18T06:15:03;16.30;85.93
65989;HTU21D;53592;51.402;6.054;2022-10-18T06:17:28;16.30;86.25
65989;HTU21D;53592;51.402;6.054;2022-10-18T06:19:54;16.33;86.24
65989;HTU21D;53592;51.402;6.054;2022-10-18T06:22:19;16.35;86.48
65989;HTU21D;53592;51.402;6.054;2022-10-18T06:24:45;16.36;86.59
65989;HTU21D;53592;51.402;6.054;2022-10-18T06:27:10;16.39;86.73
65989;HTU21D;53592;51.402;6.054;2022-10-18T06:29:38;16.39;86.93
65989;HTU21D;53592;51.402;6.054;2022-10-18T06:32:05;16.43;86.89
65989;HTU21D;53592;51.402;6.054;2022-10-18T06:34:31;16.47;86.67
65989;HTU21D;53592;51.402;6.054;2022-10-18T06:36:56;16.50;86.49
65989;HTU21D;53592;51.402;6.054;2022-10-18T06:39:22;16.55;86.44
65989;HTU21D;53592;51.402;6.054;2022-10-18T06:41:47;16.56;86.62
65989;HTU21D;53592;51.402;6.054;2022-10-18T06:44:13;16.58;86.73
65989;HTU21D;53592;51.402;6.054;2022-10-18T06:46:40;16.59;86.85
65989;HTU21D;53592;51.402;6.054;2022-10-18T06:49:06;16.65;86.76
65989;HTU21D;53592;51.402;6.054;2022-10-18T06:51:31;16.65;86.79
65989;HTU21D;53592;51.402;6.054;2022-10-18T06:53:57;16.66;86.70
65989;HTU21D;53592;51.402;6.054;2022-10-18T06:56:22;16.70;86.62
65989;HTU21D;53592;51.402;6.054;2022-10-18T06:58:48;16.72;86.48
65989;HTU21D;53592;51.402;6.054;2022-10-18T07:01:15;16.75;86.32
65989;HTU21D;53592;51.402;6.054;2022-10-18T07:03:43;16.75;86.39
65989;HTU21D;53592;51.402;6.054;2022-10-18T07:06:12;16.76;86.45
65989;HTU21D;53592;51.402;6.054;2022-10-18T07:08:39;16.79;86.37
65989;HTU21D;53592;51.402;6.054;2022-10-18T07:11:06;16.80;86.38
65989;HTU21D;53592;51.402;6.054;2022-10-18T07:13:33;16.84;86.25
65989;HTU21D;53592;51.402;6.054;2022-10-18T07:16:05;16.87;86.10
65989;HTU21D;53592;51.402;6.054;2022-10-18T07:18:32;16.87;85.93
65989;HTU21D;53592;51.402;6.054;2022-10-18T07:21:00;16.85;86.04
65989;HTU21D;53592;51.402;6.054;2022-10-18T07:23:26;16.85;85.90
65989;HTU21D;53592;51.402;6.054;2022-10-18T07:25:52;16.82;85.93
65989;HTU21D;53592;51.402;6.054;2022-10-18T07:28:17;16.82;86.03
65989;HTU21D;53592;51.402;6.054;2022-10-18T07:30:43;16.85;86.09
65989;HTU21D;53592;51.402;6.054;2022-10-18T07:33:08;16.89;85.95
65989;HTU21D;53592;51.402;6.054;2022-10-18T07:35:34;16.91;85.77
65989;HTU21D;53592;51.402;6.054;2022-10-18T07:37:59;16.89;85.56
65989;HTU21D;53592;51.402;6.054;2022-10-18T07:40:25;16.87;85.35
65989;HTU21D;53592;51.402;6.054;2022-10-18T07:42:50;16.84;85.38
65989;HTU21D;53592;51.402;6.054;2022-10-18T07:45:16;16.82;85.46
65989;HTU21D;53592;51.402;6.054;2022-10-18T07:47:41;16.82;85.42
65989;HTU21D;53592;51.402;6.054;2022-10-18T07:50:07;16.84;85.44
65989;HTU21D;53592;51.402;6.054;2022-10-18T07:52:33;16.78;85.34
65989;HTU21D;53592;51.402;6.054;2022-10-18T07:54:58;16.77;85.51
65989;HTU21D;53592;51.402;6.054;2022-10-18T07:57:24;16.72;85.60
65989;HTU21D;53592;51.402;6.054;2022-10-18T07:59:49;16.67;85.70
65989;HTU21D;53592;51.402;6.054;2022-10-18T08:02:23;16.66;85.62
65989;HTU21D;53592;51.402;6.054;2022-10-18T08:04:49;16.64;85.80
65989;HTU21D;53592;51.402;6.054;2022-10-18T08:07:14;16.64;85.97
65989;HTU21D;53592;51.402;6.054;2022-10-18T08:09:40;16.64;86.08
65989;HTU21D;53592;51.402;6.054;2022-10-18T08:12:05;16.69;86.06
65989;HTU21D;53592;51.402;6.054;2022-10-18T08:14:31;16.71;86.15
65989;HTU21D;53592;51.402;6.054;2022-10-18T08:16:56;16.75;86.17
65989;HTU21D;53592;51.402;6.054;2022-10-18T08:19:22;16.80;85.88
65989;HTU21D;53592;51.402;6.054;2022-10-18T08:21:47;16.80;85.52
65989;HTU21D;53592;51.402;6.054;2022-10-18T08:24:13;16.75;85.59
65989;HTU21D;53592;51.402;6.054;2022-10-18T08:26:38;16.73;85.87
65989;HTU21D;53592;51.402;6.054;2022-10-18T08:29:04;16.75;86.00
65989;HTU21D;53592;51.402;6.054;2022-10-18T08:31:30;16.77;85.94
65989;HTU21D;53592;51.402;6.054;2022-10-18T08:33:55;16.81;85.84
65989;HTU21D;53592;51.402;6.054;2022-10-18T08:36:24;16.81;85.59
65989;HTU21D;53592;51.402;6.054;2022-10-18T08:38:50;16.81;85.45
65989;HTU21D;53592;51.402;6.054;2022-10-18T08:44:23;16.80;85.80
65989;HTU21D;53592;51.402;6.054;2022-10-18T08:47:00;16.87;85.52
65989;HTU21D;53592;51.402;6.054;2022-10-18T08:51:58;16.87;85.83
65989;HTU21D;53592;51.402;6.054;2022-10-18T08:54:53;16.91;85.67
65989;HTU21D;53592;51.402;6.054;2022-10-18T08:57:19;16.92;85.39
65989;HTU21D;53592;51.402;6.054;2022-10-18T08:59:46;16.92;85.57
65989;HTU21D;53592;51.402;6.054;2022-10-18T09:05:16;17.05;85.52
65989;HTU21D;53592;51.402;6.054;2022-10-18T09:08:03;17.13;85.47
65989;HTU21D;53592;51.402;6.054;2022-10-18T09:10:58;17.19;85.14
65989;HTU21D;53592;51.402;6.054;2022-10-18T09:13:56;17.22;84.97
65989;HTU21D;53592;51.402;6.054;2022-10-18T09:16:41;17.29;84.80
65989;HTU21D;53592;51.402;6.054;2022-10-18T09:21:54;17.33;84.20
65989;HTU21D;53592;51.402;6.054;2022-10-18T09:27:17;17.39;83.69
65989;HTU21D;53592;51.402;6.054;2022-10-18T09:29:56;17.40;83.43
65989;HTU21D;53592;51.402;6.054;2022-10-18T09:35:21;17.43;82.72
65989;HTU21D;53592;51.402;6.054;2022-10-18T09:37:52;17.43;82.72
65989;HTU21D;53592;51.402;6.054;2022-10-18T09:40:27;17.49;82.75
65989;HTU21D;53592;51.402;6.054;2022-10-18T09:43:11;17.62;82.63
65989;HTU21D;53592;51.402;6.054;2022-10-18T09:45:43;17.83;82.42
65989;HTU21D;53592;51.402;6.054;2022-10-18T09:48:27;18.09;81.12
65989;HTU21D;53592;51.402;6.054;2022-10-18T09:51:09;18.35;79.56
65989;HTU21D;53592;51.402;6.054;2022-10-18T09:53:59;18.62;78.47
65989;HTU21D;53592;51.402;6.054;2022-10-18T09:59:33;19.13;76.99
65989;HTU21D;53592;51.402;6.054;2022-10-18T10:01:58;19.39;76.60
65989;HTU21D;53592;51.402;6.054;2022-10-18T10:04:24;19.65;75.21
65989;HTU21D;53592;51.402;6.054;2022-10-18T10:06:52;19.82;74.78
65989;HTU21D;53592;51.402;6.054;2022-10-18T10:09:26;20.03;73.80
65989;HTU21D;53592;51.402;6.054;2022-10-18T10:11:54;20.18;72.83
65989;HTU21D;53592;51.402;6.054;2022-10-18T10:14:26;20.24;72.86
65989;HTU21D;53592;51.402;6.054;2022-10-18T10:17:00;20.16;70.70
65989;HTU21D;53592;51.402;6.054;2022-10-18T10:19:35;20.00;70.80
65989;HTU21D;53592;51.402;6.054;2022-10-18T10:22:11;19.97;71.18
65989;HTU21D;53592;51.402;6.054;2022-10-18T10:24:50;19.96;70.91
65989;HTU21D;53592;51.402;6.054;2022-10-18T10:27:33;19.94;69.97
65989;HTU21D;53592;51.402;6.054;2022-10-18T10:30:30;19.80;70.48
65989;HTU21D;53592;51.402;6.054;2022-10-18T10:32:57;19.86;71.48
65989;HTU21D;53592;51.402;6.054;2022-10-18T10:35:29;19.90;71.47
65989;HTU21D;53592;51.402;6.054;2022-10-18T10:37:55;19.87;71.60
65989;HTU21D;53592;51.402;6.054;2022-10-18T10:43:27;19.75;71.24
65989;HTU21D;53592;51.402;6.054;2022-10-18T10:46:01;19.72;72.12
65989;HTU21D;53592;51.402;6.054;2022-10-18T10:48:31;19.74;72.16
65989;HTU21D;53592;51.402;6.054;2022-10-18T10:51:05;19.70;72.17
65989;HTU21D;53592;51.402;6.054;2022-10-18T10:53:39;19.61;71.97
65989;HTU21D;53592;51.402;6.054;2022-10-18T10:56:20;19.52;71.87
65989;HTU21D;53592;51.402;6.054;2022-10-18T10:58:47;19.43;72.06
65989;HTU21D;53592;51.402;6.054;2022-10-18T11:01:29;19.37;72.32
65989;HTU21D;53592;51.402;6.054;2022-10-18T11:04:22;19.36;71.21
65989;HTU21D;53592;51.402;6.054;2022-10-18T11:12:42;19.47;70.46
65989;HTU21D;53592;51.402;6.054;2022-10-18T11:20:52;19.85;70.47
65989;HTU21D;53592;51.402;6.054;2022-10-18T11:23:27;20.06;69.42
65989;HTU21D;53592;51.402;6.054;2022-10-18T11:31:07;20.43;68.05
65989;HTU21D;53592;51.402;6.054;2022-10-18T11:48:05;20.65;67.13
65989;HTU21D;53592;51.402;6.054;2022-10-18T11:53:56;20.75;65.27
65989;HTU21D;53592;51.402;6.054;2022-10-18T11:58:37;20.78;65.52
65989;HTU21D;53592;51.402;6.054;2022-10-18T12:04:10;21.03;65.01
65989;HTU21D;53592;51.402;6.054;2022-10-18T12:06:40;21.11;64.67
65989;HTU21D;53592;51.402;6.054;2022-10-18T12:12:13;21.08;64.27
65989;HTU21D;53592;51.402;6.054;2022-10-18T12:19:58;20.94;64.43
65989;HTU21D;53592;51.402;6.054;2022-10-18T12:22:26;20.99;63.18
65989;HTU21D;53592;51.402;6.054;2022-10-18T12:24:52;20.96;64.25
65989;HTU21D;53592;51.402;6.054;2022-10-18T12:27:33;21.14;63.67
65989;HTU21D;53592;51.402;6.054;2022-10-18T12:30:07;21.10;61.79
65989;HTU21D;53592;51.402;6.054;2022-10-18T12:32:37;21.16;63.17
65989;HTU21D;53592;51.402;6.054;2022-10-18T12:35:10;21.18;63.79
65989;HTU21D;53592;51.402;6.054;2022-10-18T12:37:52;21.19;63.73
65989;HTU21D;53592;51.402;6.054;2022-10-18T12:42:55;21.23;63.05
65989;HTU21D;53592;51.402;6.054;2022-10-18T12:45:32;21.14;62.98
65989;HTU21D;53592;51.402;6.054;2022-10-18T12:48:07;21.05;62.82
65989;HTU21D;53592;51.402;6.054;2022-10-18T12:50:58;20.91;62.79
65989;HTU21D;53592;51.402;6.054;2022-10-18T12:53:26;20.74;63.68
65989;HTU21D;53592;51.402;6.054;2022-10-18T12:55:53;20.65;64.33
65989;HTU21D;53592;51.402;6.054;2022-10-18T13:11:31;20.71;63.81
65989;HTU21D;53592;51.402;6.054;2022-10-18T13:14:24;20.80;62.86
65989;HTU21D;53592;51.402;6.054;2022-10-18T13:17:06;20.83;62.79
65989;HTU21D;53592;51.402;6.054;2022-10-18T13:19:54;20.83;62.95
65989;HTU21D;53592;51.402;6.054;2022-10-18T13:25:09;20.76;63.01
65989;HTU21D;53592;51.402;6.054;2022-10-18T13:27:53;20.77;63.50
65989;HTU21D;53592;51.402;6.054;2022-10-18T13:54:54;20.83;59.65
65989;HTU21D;53592;51.402;6.054;2022-10-18T14:03:15;20.69;61.21
65989;HTU21D;53592;51.402;6.054;2022-10-18T14:05:52;20.63;61.01
65989;HTU21D;53592;51.402;6.054;2022-10-18T14:11:44;20.45;61.24
65989;HTU21D;53592;51.402;6.054;2022-10-18T14:14:21;20.39;61.33
65989;HTU21D;53592;51.402;6.054;2022-10-18T14:19:35;20.04;61.52
65989;HTU21D;53592;51.402;6.054;2022-10-18T14:22:20;19.85;61.26
65989;HTU21D;53592;51.402;6.054;2022-10-18T14:24:53;19.76;61.70
65989;HTU21D;53592;51.402;6.054;2022-10-18T14:27:25;19.71;62.28
65989;HTU21D;53592;51.402;6.054;2022-10-18T14:30:14;19.67;62.44
65989;HTU21D;53592;51.402;6.054;2022-10-18T14:32:47;19.63;61.79
65989;HTU21D;53592;51.402;6.054;2022-10-18T14:35:19;19.60;62.21
65989;HTU21D;53592;51.402;6.054;2022-10-18T14:37:51;19.50;62.23
65989;HTU21D;53592;51.402;6.054;2022-10-18T14:40:38;19.42;62.02
65989;HTU21D;53592;51.402;6.054;2022-10-18T14:43:18;19.40;62.08
65989;HTU21D;53592;51.402;6.054;2022-10-18T14:45:44;19.35;61.74
65989;HTU21D;53592;51.402;6.054;2022-10-18T14:48:16;19.32;60.44
65989;HTU21D;53592;51.402;6.054;2022-10-18T14:50:49;19.28;61.20
65989;HTU21D;53592;51.402;6.054;2022-10-18T14:53:24;19.26;61.54
65989;HTU21D;53592;51.402;6.054;2022-10-18T14:56:01;19.18;61.16
65989;HTU21D;53592;51.402;6.054;2022-10-18T14:58:31;19.12;60.48
65989;HTU21D;53592;51.402;6.054;2022-10-18T15:00:58;19.06;60.89
65989;HTU21D;53592;51.402;6.054;2022-10-18T15:03:24;19.03;61.83
65989;HTU21D;53592;51.402;6.054;2022-10-18T15:06:01;18.97;61.22
65989;HTU21D;53592;51.402;6.054;2022-10-18T15:08:52;18.91;60.93
65989;HTU21D;53592;51.402;6.054;2022-10-18T15:11:19;18.85;61.11
65989;HTU21D;53592;51.402;6.054;2022-10-18T15:13:53;18.83;61.80
65989;HTU21D;53592;51.402;6.054;2022-10-18T15:16:24;18.80;61.56
65989;HTU21D;53592;51.402;6.054;2022-10-18T15:19:01;18.73;62.26
65989;HTU21D;53592;51.402;6.054;2022-10-18T15:21:27;18.70;61.83
65989;HTU21D;53592;51.402;6.054;2022-10-18T15:23:53;18.69;61.53
65989;HTU21D;53592;51.402;6.054;2022-10-18T15:26:29;18.66;61.86
65989;HTU21D;53592;51.402;6.054;2022-10-18T15:28:56;18.61;62.78
65989;HTU21D;53592;51.402;6.054;2022-10-18T15:31:41;18.63;63.70
65989;HTU21D;53592;51.402;6.054;2022-10-18T15:34:21;18.61;62.73
65989;HTU21D;53592;51.402;6.054;2022-10-18T15:36:49;18.59;62.33
65989;HTU21D;53592;51.402;6.054;2022-10-18T15:39:27;18.61;63.24
65989;HTU21D;53592;51.402;6.054;2022-10-18T15:42:01;18.56;62.55
65989;HTU21D;53592;51.402;6.054;2022-10-18T15:44:33;18.52;62.34
65989;HTU21D;53592;51.402;6.054;2022-10-18T15:47:16;18.50;64.04
65989;HTU21D;53592;51.402;6.054;2022-10-18T15:54:56;18.47;65.54
65989;HTU21D;53592;51.402;6.054;2022-10-18T15:57:22;18.43;65.84
65989;HTU21D;53592;51.402;6.054;2022-10-18T15:59:56;18.42;66.12
65989;HTU21D;53592;51.402;6.054;2022-10-18T16:02:23;18.35;64.63
65989;HTU21D;53592;51.402;6.054;2022-10-18T16:04:48;18.28;64.21
65989;HTU21D;53592;51.402;6.054;2022-10-18T16:07:14;18.20;64.29
65989;HTU21D;53592;51.402;6.054;2022-10-18T16:09:39;18.09;64.56
65989;HTU21D;53592;51.402;6.054;2022-10-18T16:12:05;18.04;65.18
65989;HTU21D;53592;51.402;6.054;2022-10-18T16:14:31;17.99;65.32
65989;HTU21D;53592;51.402;6.054;2022-10-18T16:17:03;17.93;65.43
65989;HTU21D;53592;51.402;6.054;2022-10-18T16:19:30;17.83;65.46
65989;HTU21D;53592;51.402;6.054;2022-10-18T16:21:56;17.70;65.63
65989;HTU21D;53592;51.402;6.054;2022-10-18T16:24:22;17.61;65.77
65989;HTU21D;53592;51.402;6.054;2022-10-18T16:26:48;17.54;66.30
65989;HTU21D;53592;51.402;6.054;2022-10-18T16:29:16;17.49;66.62
65989;HTU21D;53592;51.402;6.054;2022-10-18T16:31:46;17.38;66.67
65989;HTU21D;53592;51.402;6.054;2022-10-18T16:34:12;17.28;66.49
65989;HTU21D;53592;51.402;6.054;2022-10-18T16:36:39;17.20;66.68
65989;HTU21D;53592;51.402;6.054;2022-10-18T16:39:11;17.16;67.33
65989;HTU21D;53592;51.402;6.054;2022-10-18T16:41:38;17.16;67.50
65989;HTU21D;53592;51.402;6.054;2022-10-18T16:44:03;17.09;66.91
65989;HTU21D;53592;51.402;6.054;2022-10-18T16:46:31;17.01;67.37
65989;HTU21D;53592;51.402;6.054;2022-10-18T16:48:58;16.99;67.60
65989;HTU21D;53592;51.402;6.054;2022-10-18T16:51:24;16.93;67.64
65989;HTU21D;53592;51.402;6.054;2022-10-18T16:53:50;16.87;68.37
65989;HTU21D;53592;51.402;6.054;2022-10-18T16:56:29;16.77;68.37
65989;HTU21D;53592;51.402;6.054;2022-10-18T16:58:57;16.69;68.91
65989;HTU21D;53592;51.402;6.054;2022-10-18T17:01:24;16.62;69.00
65989;HTU21D;53592;51.402;6.054;2022-10-18T17:03:50;16.56;69.01
65989;HTU21D;53592;51.402;6.054;2022-10-18T17:06:31;16.47;69.44
65989;HTU21D;53592;51.402;6.054;2022-10-18T17:08:57;16.39;69.36
65989;HTU21D;53592;51.402;6.054;2022-10-18T17:11:26;16.29;69.75
65989;HTU21D;53592;51.402;6.054;2022-10-18T17:13:52;16.25;69.84
65989;HTU21D;53592;51.402;6.054;2022-10-18T17:16:33;16.15;69.84
65989;HTU21D;53592;51.402;6.054;2022-10-18T17:19:03;16.02;70.19
65989;HTU21D;53592;51.402;6.054;2022-10-18T17:21:29;15.88;70.88
65989;HTU21D;53592;51.402;6.054;2022-10-18T17:23:56;15.78;71.21
65989;HTU21D;53592;51.402;6.054;2022-10-18T17:26:25;15.68;71.62
65989;HTU21D;53592;51.402;6.054;2022-10-18T17:28:52;15.61;71.64
65989;HTU21D;53592;51.402;6.054;2022-10-18T17:31:19;15.52;72.07
65989;HTU21D;53592;51.402;6.054;2022-10-18T17:33:45;15.42;72.41
65989;HTU21D;53592;51.402;6.054;2022-10-18T17:36:11;15.38;72.56
65989;HTU21D;53592;51.402;6.054;2022-10-18T17:38:36;15.33;72.85
65989;HTU21D;53592;51.402;6.054;2022-10-18T17:41:09;15.28;72.83
65989;HTU21D;53592;51.402;6.054;2022-10-18T17:43:36;15.23;73.21
65989;HTU21D;53592;51.402;6.054;2022-10-18T17:46:03;15.14;73.28
65989;HTU21D;53592;51.402;6.054;2022-10-18T17:48:29;15.08;73.49
65989;HTU21D;53592;51.402;6.054;2022-10-18T17:50:55;15.04;73.29
65989;HTU21D;53592;51.402;6.054;2022-10-18T17:53:20;14.98;73.43
65989;HTU21D;53592;51.402;6.054;2022-10-18T17:55:49;14.88;73.99
65989;HTU21D;53592;51.402;6.054;2022-10-18T17:58:21;14.82;74.51
65989;HTU21D;53592;51.402;6.054;2022-10-18T18:00:46;14.78;74.48
65989;HTU21D;53592;51.402;6.054;2022-10-18T18:03:11;14.67;74.79
65989;HTU21D;53592;51.402;6.054;2022-10-18T18:05:37;14.59;75.30
65989;HTU21D;53592;51.402;6.054;2022-10-18T18:08:03;14.58;75.17
65989;HTU21D;53592;51.402;6.054;2022-10-18T18:10:28;14.56;75.19
65989;HTU21D;53592;51.402;6.054;2022-10-18T18:12:54;14.55;75.02
65989;HTU21D;53592;51.402;6.054;2022-10-18T18:15:20;14.51;74.99
65989;HTU21D;53592;51.402;6.054;2022-10-18T18:17:45;14.43;75.38
65989;HTU21D;53592;51.402;6.054;2022-10-18T18:20:11;14.34;75.57